Flight Track Log - Related Links

Times and Time Zones

All times are in EDT time to prevent confusion due to time zone crossing. See the ASA301 flight status page for this flight to view local times or setup timezone preferences in your user account.

Time Position Orientation Groundspeed Altitude Reporting Facility
EDT Latitude Longitude Course Direction KTS MPH feet Rate Location/Type
Tue 02:16:39 PM 37.6317 -122.3611 North 163 188 38,000  Level Oakland Center
Tue 02:17:41 PM 37.6642 -122.3192 46° Northeast 205 236 2,800 -15,805 Descending Oakland Center
Tue 02:18:42 PM 37.7186 -122.2783 31° Northeast 238 274 5,600 3,000 Climbing Oakland Center
Tue 02:19:43 PM 37.7892 -122.2803 359° North 253 291 8,900 3,268 Climbing Oakland Center
Tue 02:20:45 PM 37.8842 -122.2783 North 280 322 12,300 2,976 Climbing Oakland Center
Tue 02:21:46 PM 37.9775 -122.2756 North 329 379 15,000 2,878 Climbing Oakland Center
Tue 02:22:00 PM 37.7364 -122.3534 North  Level FlightAware Approximate
Tue 02:22:48 PM 38.0767 -122.2742 North 357 411 18,200  Level Oakland Center
Tue 02:23:49 PM 38.1817 -122.2717 North 378 435 21,100 2,754 Climbing Oakland Center
Tue 02:24:50 PM 38.2919 -122.2694 North 397 457 23,800 2,439 Climbing Oakland Center
Tue 02:25:52 PM 38.4078 -122.2694 360° North 414 476 26,100 2,195 Climbing Oakland Center
Tue 02:26:53 PM 38.5267 -122.2753 358° North 427 491 28,300 2,262 Climbing Oakland Center
Tue 02:27:54 PM 38.6733 -122.2806 358° North 439 505 30,700 2,195 Climbing Oakland Center
Tue 02:28:56 PM 38.7931 -122.2867 358° North 437 503 32,800 1,805 Climbing Oakland Center
Tue 02:29:57 PM 38.9156 -122.2911 358° North 437 503 34,400 1,475 Climbing Oakland Center
Tue 02:30:58 PM 39.0381 -122.2958 358° North 438 504 35,800 1,561 Climbing Oakland Center
Tue 02:32:00 PM 39.1611 -122.3014 358° North 440 506 37,600 1,073 Climbing Oakland Center
Tue 02:33:01 PM 39.2825 -122.3083 357° North 436 502 38,000 197 Climbing Oakland Center
Tue 02:34:02 PM 39.4047 -122.3100 359° North 437 503 38,000  Level Oakland Center
Tue 02:35:04 PM 39.5428 -122.3169 358° North 439 505 38,000  Level Oakland Center
Tue 02:36:05 PM 39.6656 -122.3217 358° North 440 506 38,000  Level Oakland Center
Tue 02:37:06 PM 39.7889 -122.3267 358° North 443 510 38,000  Level Oakland Center
Tue 02:38:07 PM 39.9128 -122.3325 358° North 444 511 38,000  Level Oakland Center
Tue 02:39:09 PM 40.0356 -122.3364 359° North 442 509 38,000  Level Oakland Center
Tue 02:40:10 PM 40.1697 -122.3414 358° North 444 511 38,000  Level Oakland Center
Tue 02:41:11 PM 40.2947 -122.3469 358° North 448 516 38,000  Level Oakland Center
Tue 02:42:12 PM 40.4192 -122.3525 358° North 448 516 38,000  Level Oakland Center
Tue 02:43:14 PM 40.5408 -122.3575 358° North 441 507 38,000  Level Oakland Center
Tue 02:44:15 PM 40.6642 -122.3619 358° North 443 510 38,000  Level Oakland Center
Tue 02:45:16 PM 40.7872 -122.3667 358° North 442 509 38,000  Level Oakland Center
Tue 02:46:17 PM 40.9100 -122.3700 359° North 442 509 38,000  Level Oakland Center
Tue 02:47:18 PM 41.0331 -122.3736 359° North 445 512 38,000  Level Oakland Center
Tue 02:48:20 PM 41.1833 -122.3858 356° North 453 521 38,000  Level Oakland Center
Tue 02:49:21 PM 41.3086 -122.3897 359° North 451 519 38,000  Level Oakland Center
Tue 02:50:20 PM 41.4219 -122.3947 358° North 451 519 38,000  Level Seattle Center
Tue 02:51:21 PM 41.5425 -122.3997 358° North 433 498 38,000  Level Seattle Center
Tue 02:52:22 PM 41.6633 -122.4042 358° North 434 499 38,000  Level Seattle Center
Tue 02:53:23 PM 41.7864 -122.4100 358° North 439 505 38,000  Level Seattle Center
Tue 02:54:24 PM 41.9094 -122.4142 359° North 441 507 38,000  Level Seattle Center
Tue 02:55:25 PM 42.0336 -122.4194 358° North 441 507 38,000  Level Seattle Center
Tue 02:56:26 PM 42.1581 -122.4236 359° North 443 510 38,000  Level Seattle Center
Tue 02:57:27 PM 42.2825 -122.4303 358° North 443 510 38,000  Level Seattle Center
Tue 02:58:28 PM 42.4067 -122.4361 358° North 443 510 38,000  Level Seattle Center
Tue 02:59:31 PM 42.5297 -122.4411 358° North 441 507 38,000  Level Seattle Center
Tue 03:00:32 PM 42.6533 -122.4464 358° North 442 509 38,000  Level Seattle Center
Tue 03:01:33 PM 42.7919 -122.4531 358° North 433 498 38,000  Level Seattle Center
Tue 03:02:34 PM 42.9131 -122.4578 358° North 434 499 38,000  Level Seattle Center
Tue 03:03:35 PM 43.0328 -122.4642 358° North 431 496 38,000  Level Seattle Center
Tue 03:04:36 PM 43.1536 -122.4689 358° North 433 498 38,000  Level Seattle Center
Tue 03:05:37 PM 43.2758 -122.4733 358° North 437 503 38,000  Level Seattle Center
Tue 03:06:38 PM 43.3975 -122.4800 358° North 439 505 38,000  Level Seattle Center
Tue 03:07:39 PM 43.5447 -122.4872 358° North 442 509 38,000  Level Seattle Center
Tue 03:08:40 PM 43.6669 -122.4922 358° North 441 507 38,000  Level Seattle Center
Tue 03:09:41 PM 43.7900 -122.4967 359° North 442 509 38,000  Level Seattle Center
Tue 03:10:42 PM 43.9128 -122.5019 358° North 444 511 38,000  Level Seattle Center
Tue 03:11:43 PM 44.0339 -122.5089 358° North 440 506 38,000  Level Seattle Center
Tue 03:12:45 PM 44.1553 -122.5139 358° North 438 504 38,000  Level Seattle Center
Tue 03:13:46 PM 44.2758 -122.5225 357° North 436 502 38,000  Level Seattle Center
Tue 03:14:47 PM 44.3861 -122.4864 13° North 420 483 38,000  Level Seattle Center
Tue 03:15:48 PM 44.4669 -122.3781 44° Northeast 405 466 38,000  Level Seattle Center
Tue 03:16:49 PM 44.5450 -122.2731 44° Northeast 395 455 38,000  Level Seattle Center
Tue 03:17:50 PM 44.6358 -122.1519 43° Northeast 380 437 38,000  Level Seattle Center
Tue 03:18:51 PM 44.7097 -122.0500 44° Northeast 376 433 38,000  Level Seattle Center
Tue 03:19:52 PM 44.8006 -121.9792 29° Northeast 393 452 38,000  Level Seattle Center
Tue 03:20:53 PM 44.9008 -122.0300 340° North 421 484 38,000  Level Seattle Center
Tue 03:21:54 PM 45.0047 -122.0981 335° Northwest 423 487 38,000  Level Seattle Center
Tue 03:22:55 PM 45.1111 -122.1692 335° Northwest 425 489 38,000  Level Seattle Center
Tue 03:23:56 PM 45.2181 -122.2383 336° Northwest 426 490 38,000 -98 Level Seattle Center
Tue 03:24:57 PM 45.3461 -122.3233 335° Northwest 426 490 37,800 -1,230 Descending Seattle Center
Tue 03:25:58 PM 45.4514 -122.3939 335° Northwest 421 484 35,500 -2,607 Descending Seattle Center
Tue 03:26:59 PM 45.5586 -122.4633 336° Northwest 424 488 32,500 -2,829 Descending Seattle Center
Tue 03:28:01 PM 45.6667 -122.5350 335° Northwest 429 494 29,700 -2,195 Descending Seattle Center
Tue 03:29:02 PM 45.7750 -122.5989 338° Northwest 424 488 28,000 -836 Descending Seattle Center
Tue 03:30:03 PM 45.8883 -122.6250 351° North 415 478 28,000  Level Seattle Center
Tue 03:31:04 PM 46.0022 -122.6547 350° North 417 480 28,000  Level Seattle Center
Tue 03:32:05 PM 46.1147 -122.6825 350° North 413 475 28,000  Level Seattle Center
Tue 03:33:06 PM 46.2342 -122.7067 352° North 412 474 28,000  Level Seattle Center
Tue 03:34:07 PM 46.3469 -122.7256 353° North 412 474 28,000 -1,230 Level Seattle Center
Tue 03:35:08 PM 46.4586 -122.7164 North 408 470 25,500 -2,410 Descending Seattle Center
Tue 03:36:09 PM 46.5672 -122.7153 360° North 396 456 23,100 -2,581 Descending Seattle Center
Tue 03:36:41 PM 46.6419 -122.7117 North 384 442 21,500 -2,557 Descending Seattle Center
Tue 03:37:10 PM 46.6933 -122.7094 North 381 438 20,500 -1,979 Descending Seattle Center
Tue 03:38:18 PM 46.8064 -122.7042 North 363 418 18,300 -1,918 Descending Seattle Center
Tue 03:39:12 PM 46.8792 -122.6294 35° Northeast 344 396 16,600 -1,722 Descending Seattle Center
Tue 03:40:13 PM 46.9556 -122.5519 35° Northeast 338 389 15,000 -1,672 Descending Seattle Center
Tue 03:41:14 PM 47.0419 -122.5169 15° North 323 372 13,200 -1,672 Descending Seattle Center
Tue 03:42:15 PM 47.1328 -122.4889 12° North 311 358 11,600 -1,475 Descending Seattle Center
Tue 03:43:16 PM 47.2153 -122.4761 North 301 346 10,200 -1,128 Descending Seattle Center
Tue 03:44:12 PM 47.2833 -122.4656 North 274 315 9,400 -1,033 Descending Seattle Center
Tue 03:45:18 PM 47.3608 -122.4542 North 258 297 8,100 -942 Descending Seattle Center
Tue 03:46:13 PM 47.4208 -122.4558 359° North 231 266 7,500 -836 Descending Seattle Center
Tue 03:47:20 PM 47.4889 -122.4553 360° North 222 255 6,400 -945 Descending Seattle Center
Tue 03:48:20 PM 47.5494 -122.4550 360° North 217 250 5,500 -645 Descending Seattle Center
Tue 03:49:21 PM 47.6147 -122.4511 North 217 250 5,100 -393 Descending Seattle Center
Tue 03:50:22 PM 47.6456 -122.3867 55° Northeast 232 267 4,700 -634 Descending Seattle Center
Tue 03:51:24 PM 47.6269 -122.3128 110° East 216 249 3,800 -1,086 Descending Seattle Center
Tue 03:52:18 PM 47.5731 -122.3194 185° South 201 231 2,600 -1,156 Descending Seattle Center
Tue 03:53:13 PM 47.5264 -122.3192 180° South 184 212 1,700 -836 Descending Seattle Center
Tue 03:54:20 PM 47.4842 -122.3194 180° South 136 157 900 -582 Descending Seattle Center
Tue 03:55:27 PM 47.4494 -122.3186 179° South 132 152 400 -448 Descending Seattle Center
Tue 03:57:00 PM 47.4499 -122.3118 175° South  Level Estimated

Login

Don't have an account? Register now (free) for customized features, flight alerts, and more!